createdAt,value
2018-03-15T00:00:14.644Z,94.30
2018-03-15T00:02:43.645Z,93.70
2018-03-15T00:05:12.963Z,93.80
2018-03-15T00:07:42.208Z,94.70
2018-03-15T00:10:11.405Z,95.00
2018-03-15T00:12:40.637Z,95.20
2018-03-15T00:15:09.833Z,94.60
2018-03-15T00:17:39.026Z,93.80
2018-03-15T00:20:08.259Z,93.90
2018-03-15T00:22:37.433Z,93.80
2018-03-15T00:25:06.638Z,93.60
2018-03-15T00:27:35.854Z,93.30
2018-03-15T00:30:05.833Z,93.90
2018-03-15T00:32:35.056Z,93.90
2018-03-15T00:35:05.033Z,95.30
2018-03-15T00:37:34.221Z,95.30
2018-03-15T00:40:03.480Z,95.10
2018-03-15T00:42:33.398Z,95.40
2018-03-15T00:45:03.335Z,93.90
2018-03-15T00:47:32.494Z,93.90
2018-03-15T00:50:01.645Z,93.90
2018-03-15T00:52:30.837Z,94.50
2018-03-15T00:55:00.066Z,94.60
2018-03-15T00:57:29.295Z,94.80
2018-03-15T00:59:59.266Z,95.30
2018-03-15T01:02:28.513Z,95.30
2018-03-15T01:04:57.713Z,94.60
2018-03-15T01:07:26.913Z,94.70
2018-03-15T01:09:56.109Z,94.20
2018-03-15T01:12:25.321Z,94.10
2018-03-15T01:14:55.275Z,94.30
2018-03-15T01:17:24.493Z,94.30
2018-03-15T01:19:54.473Z,94.40
2018-03-15T01:22:23.701Z,94.40
2018-03-15T01:24:52.910Z,95.10
2018-03-15T01:27:22.126Z,95.20
2018-03-15T01:29:51.324Z,95.70
2018-03-15T01:32:20.561Z,94.90
2018-03-15T01:34:49.735Z,94.60
2018-03-15T01:37:18.941Z,94.50
2018-03-15T01:39:48.134Z,94.30
2018-03-15T01:42:17.345Z,94.20
2018-03-15T01:44:46.537Z,94.50
2018-03-15T01:47:15.746Z,95.10
2018-03-15T01:49:44.941Z,95.10
2018-03-15T01:52:14.113Z,95.10
2018-03-15T01:54:43.302Z,95.30
2018-03-15T01:57:12.537Z,95.60
2018-03-15T01:59:41.773Z,95.80
2018-03-15T02:02:10.954Z,95.30
2018-03-15T02:04:40.153Z,95.70
2018-03-15T02:07:09.373Z,96.00
2018-03-15T02:09:39.329Z,95.70
2018-03-15T02:12:08.533Z,95.70
2018-03-15T02:14:37.754Z,95.70
2018-03-15T02:17:07.766Z,97.20
2018-03-15T02:19:36.965Z,97.10
2018-03-15T02:22:06.169Z,97.10
2018-03-15T02:24:35.413Z,97.30
2018-03-15T02:27:04.674Z,97.10
2018-03-15T02:29:33.876Z,97.10
2018-03-15T02:32:03.098Z,97.30
2018-03-15T02:34:33.078Z,96.70
2018-03-15T02:37:02.315Z,96.70
2018-03-15T02:39:32.269Z,96.60
2018-03-15T02:42:01.473Z,96.60
2018-03-15T02:44:31.513Z,96.00
2018-03-15T02:47:00.673Z,96.00
2018-03-15T02:49:29.880Z,95.60
2018-03-15T02:51:59.133Z,95.30
2018-03-15T02:54:28.355Z,95.70
2018-03-15T02:56:57.608Z,96.40
2018-03-15T02:59:26.816Z,96.40
2018-03-15T03:01:56.813Z,95.30
2018-03-15T03:04:26.012Z,95.20
2018-03-15T03:06:55.226Z,95.20
2018-03-15T03:09:25.174Z,95.10
2018-03-15T03:11:54.378Z,95.10
2018-03-15T03:14:23.599Z,95.20
2018-03-15T03:16:52.786Z,94.80
2018-03-15T03:19:22.014Z,94.90
2018-03-15T03:21:51.275Z,95.10
2018-03-15T03:24:20.497Z,95.20
2018-03-15T03:26:49.714Z,95.80
2018-03-15T03:29:18.934Z,95.90
2018-03-15T03:31:48.928Z,95.70
2018-03-15T03:34:18.126Z,95.70
2018-03-15T03:36:47.333Z,95.80
2018-03-15T03:39:16.521Z,95.70
2018-03-15T03:41:45.730Z,95.60
2018-03-15T03:44:15.694Z,96.00
2018-03-15T03:46:44.874Z,96.00
2018-03-15T03:49:14.054Z,96.30
2018-03-15T03:51:46.875Z,96.30
2018-03-15T03:54:16.029Z,96.20
2018-03-15T03:56:45.197Z,96.40
2018-03-15T03:59:15.172Z,96.60
2018-03-15T04:01:44.449Z,96.60
2018-03-15T04:04:13.605Z,96.40
2018-03-15T04:06:42.789Z,95.90
2018-03-15T04:09:11.972Z,95.40
2018-03-15T04:11:41.149Z,95.00
2018-03-15T04:14:10.357Z,95.40
2018-03-15T04:16:39.581Z,95.90
2018-03-15T04:19:08.754Z,96.00
2018-03-15T04:21:37.945Z,95.90
2018-03-15T04:24:07.145Z,96.20
2018-03-15T04:26:36.334Z,96.10
2018-03-15T04:29:05.543Z,96.00
2018-03-15T04:31:34.744Z,95.90
2018-03-15T04:34:03.977Z,95.70
2018-03-15T04:36:33.178Z,95.50
2018-03-15T04:39:02.361Z,95.30
2018-03-15T04:41:32.369Z,95.90
2018-03-15T04:44:01.601Z,95.90
2018-03-15T04:46:30.792Z,95.40
2018-03-15T04:49:00.005Z,95.80
2018-03-15T04:51:29.241Z,95.90
2018-03-15T04:53:59.225Z,95.20
2018-03-15T04:56:28.480Z,95.20
2018-03-15T04:58:57.685Z,95.20
2018-03-15T05:01:26.887Z,95.50
2018-03-15T05:03:56.129Z,94.90
2018-03-15T05:06:25.328Z,94.50
2018-03-15T05:08:54.513Z,94.90
2018-03-15T05:11:24.463Z,95.20
2018-03-15T05:13:53.676Z,95.20
2018-03-15T05:16:22.864Z,95.50
2018-03-15T05:18:52.076Z,95.40
2018-03-15T05:21:22.052Z,95.30
2018-03-15T05:23:51.243Z,95.30
2018-03-15T05:26:21.177Z,94.90
2018-03-15T05:28:50.368Z,94.90
2018-03-15T05:31:19.561Z,95.40
2018-03-15T05:33:48.794Z,95.30
2018-03-15T05:36:17.980Z,95.20
2018-03-15T05:38:47.208Z,94.80
2018-03-15T05:41:17.199Z,95.00
2018-03-15T05:43:46.413Z,95.00
2018-03-15T05:46:15.621Z,94.90
2018-03-15T05:48:44.807Z,94.50
2018-03-15T05:51:13.996Z,94.20
2018-03-15T05:53:43.204Z,94.50
2018-03-15T05:56:12.436Z,94.30
2018-03-15T05:58:42.398Z,93.80
2018-03-15T06:01:11.601Z,93.80
2018-03-15T06:03:40.809Z,93.80
2018-03-15T06:06:10.034Z,94.00
2018-03-15T06:08:39.238Z,94.10
2018-03-15T06:11:09.195Z,94.10
2018-03-15T06:13:38.421Z,94.10
2018-03-15T06:16:07.672Z,94.00
2018-03-15T06:18:36.911Z,93.80
2018-03-15T06:21:06.139Z,93.90
2018-03-15T06:23:36.194Z,93.50
2018-03-15T06:26:05.377Z,93.40
2018-03-15T06:28:34.585Z,93.40
2018-03-15T06:31:03.787Z,93.40
2018-03-15T06:33:32.980Z,93.30
2018-03-15T06:36:02.176Z,93.10
2018-03-15T06:38:31.370Z,92.80
2018-03-15T06:41:00.668Z,92.90
2018-03-15T06:43:30.625Z,92.60
2018-03-15T06:45:59.847Z,92.50
2018-03-15T06:48:29.830Z,92.40
2018-03-15T06:50:59.032Z,92.30
2018-03-15T06:53:28.225Z,92.10
2018-03-15T06:55:58.152Z,92.90
2018-03-15T06:58:27.349Z,93.00
2018-03-15T07:00:56.559Z,93.10
2018-03-15T07:03:26.657Z,93.50
2018-03-15T07:05:55.877Z,94.40
2018-03-15T07:08:25.060Z,94.10
2018-03-15T07:10:54.275Z,93.70
2018-03-15T07:13:23.462Z,93.10
2018-03-15T07:15:52.668Z,93.10
2018-03-15T07:18:21.840Z,93.30
2018-03-15T07:20:51.041Z,93.20
2018-03-15T07:23:21.048Z,93.00
2018-03-15T07:25:50.231Z,93.10
2018-03-15T07:28:19.442Z,92.90
2018-03-15T07:30:48.625Z,92.70
2018-03-15T07:33:17.813Z,92.40
2018-03-15T07:35:46.990Z,92.40
2018-03-15T07:38:16.193Z,91.90
2018-03-15T07:40:46.149Z,91.60
2018-03-15T07:43:15.349Z,91.90
2018-03-15T07:45:44.532Z,91.50
2018-03-15T07:48:13.728Z,92.60
2018-03-15T07:50:43.666Z,91.80
2018-03-15T07:53:12.831Z,91.80
2018-03-15T07:55:42.025Z,91.30
2018-03-15T07:58:11.254Z,90.70
2018-03-15T08:00:40.456Z,90.10
2018-03-15T08:03:09.625Z,90.20
2018-03-15T08:05:38.839Z,89.00
2018-03-15T08:08:08.012Z,89.30
2018-03-15T08:10:37.965Z,88.30
2018-03-15T08:13:07.157Z,88.40
2018-03-15T08:15:36.345Z,88.40
2018-03-15T08:18:05.550Z,88.00
2018-03-15T08:20:34.752Z,86.50
2018-03-15T08:23:03.994Z,86.40
2018-03-15T08:25:33.231Z,83.10
2018-03-15T08:28:02.425Z,81.30
2018-03-15T08:30:31.641Z,82.10
2018-03-15T08:33:00.866Z,81.40
2018-03-15T08:35:30.145Z,80.60
2018-03-15T08:37:59.340Z,81.80
2018-03-15T08:40:29.346Z,79.50
2018-03-15T08:42:58.548Z,79.50
2018-03-15T08:45:27.774Z,83.00
2018-03-15T08:47:57.042Z,81.10
2018-03-15T08:50:26.246Z,83.60
2018-03-15T08:52:55.466Z,81.50
2018-03-15T08:55:25.489Z,83.10
2018-03-15T08:57:55.458Z,81.80
2018-03-15T09:00:24.690Z,81.70
2018-03-15T09:02:53.926Z,82.40
2018-03-15T09:05:23.148Z,82.20
2018-03-15T09:07:52.293Z,81.50
2018-03-15T09:10:24.506Z,79.80
2018-03-15T09:12:53.723Z,79.50
2018-03-15T09:15:22.956Z,77.00
2018-03-15T09:17:52.962Z,75.80
2018-03-15T09:20:22.190Z,75.60
2018-03-15T09:22:51.405Z,76.60
2018-03-15T09:25:21.434Z,75.80
2018-03-15T09:27:50.648Z,75.80
2018-03-15T09:30:19.878Z,74.70
2018-03-15T09:32:50.802Z,76.40
2018-03-15T09:35:20.045Z,76.40
2018-03-15T09:37:49.267Z,72.60
2018-03-15T09:40:18.490Z,75.10
2018-03-15T09:42:47.706Z,73.60
2018-03-15T09:45:17.705Z,72.00
2018-03-15T09:47:46.924Z,72.00
2018-03-15T09:50:16.886Z,66.90
2018-03-15T09:52:46.117Z,66.90
2018-03-15T09:55:15.391Z,65.90
2018-03-15T09:57:44.609Z,68.10
2018-03-15T10:00:13.846Z,67.90
2018-03-15T10:02:43.158Z,73.20
2018-03-15T10:05:12.415Z,71.50
2018-03-15T10:07:41.706Z,69.40
2018-03-15T10:10:10.966Z,68.70
2018-03-15T10:12:40.247Z,70.20
2018-03-15T10:15:09.508Z,64.30
2018-03-15T10:17:39.536Z,64.60
2018-03-15T10:20:08.770Z,64.50
2018-03-15T10:22:38.082Z,70.20
2018-03-15T10:25:13.767Z,71.70
2018-03-15T10:27:36.553Z,57.50
2018-03-15T10:30:06.591Z,68.90
2018-03-15T10:32:35.814Z,68.90
2018-03-15T10:35:10.973Z,74.30
2018-03-15T10:37:40.169Z,55.10
2018-03-15T10:40:09.555Z,54.20
2018-03-15T10:42:39.551Z,46.30
2018-03-15T10:45:08.827Z,46.20
2018-03-15T10:47:38.069Z,44.10
2018-03-15T10:50:08.072Z,43.60
2018-03-15T10:52:37.280Z,43.70
2018-03-15T10:55:07.121Z,43.70
2018-03-15T10:57:37.182Z,42.50
2018-03-15T11:00:06.458Z,44.00
2018-03-15T11:02:54.406Z,42.90
2018-03-15T11:05:29.206Z,43.50
2018-03-15T11:08:03.955Z,43.10
2018-03-15T11:10:33.178Z,44.70
2018-03-15T11:13:02.434Z,41.80
2018-03-15T11:15:31.647Z,41.40
2018-03-15T11:18:01.719Z,41.40
2018-03-15T11:20:31.015Z,41.30
2018-03-15T11:23:00.276Z,40.90
2018-03-15T11:25:30.275Z,43.00
2018-03-15T11:28:00.306Z,42.50
2018-03-15T11:30:29.573Z,42.30
2018-03-15T11:32:59.597Z,42.80
2018-03-15T11:35:28.822Z,42.70
2018-03-15T11:37:58.070Z,42.70
2018-03-15T11:40:27.358Z,41.90
2018-03-15T11:42:56.646Z,41.70
2018-03-15T11:45:25.930Z,41.60
2018-03-15T11:47:55.214Z,41.90
2018-03-15T11:50:25.217Z,41.00
2018-03-15T11:52:54.454Z,40.90
2018-03-15T11:55:23.717Z,40.80
2018-03-15T11:57:53.016Z,40.90
2018-03-15T12:00:22.262Z,41.90
2018-03-15T12:02:51.497Z,41.90
2018-03-15T12:05:20.737Z,41.80
2018-03-15T12:07:49.957Z,41.90
2018-03-15T12:10:19.204Z,41.80
2018-03-15T12:12:48.446Z,41.90
2018-03-15T12:15:17.706Z,41.00
2018-03-15T12:17:47.717Z,40.80
2018-03-15T12:20:17.757Z,40.70
2018-03-15T12:22:46.986Z,40.50
2018-03-15T12:25:16.186Z,41.40
2018-03-15T12:27:45.385Z,40.20
2018-03-15T12:30:14.657Z,42.10
2018-03-15T12:32:43.886Z,40.80
2018-03-15T12:35:13.120Z,41.00
2018-03-15T12:37:42.346Z,43.00
2018-03-15T12:40:12.315Z,42.30
2018-03-15T12:42:41.561Z,42.20
2018-03-15T12:45:11.532Z,41.70
2018-03-15T12:47:40.742Z,41.70
2018-03-15T12:50:10.848Z,43.70
2018-03-15T12:52:40.062Z,43.70
2018-03-15T12:55:09.281Z,42.50
2018-03-15T12:57:39.258Z,42.10
2018-03-15T13:00:08.501Z,42.00
2018-03-15T13:02:37.854Z,43.00
2018-03-15T13:05:07.081Z,43.20
2018-03-15T13:07:36.311Z,42.30
2018-03-15T13:10:05.526Z,42.60
2018-03-15T13:12:34.745Z,43.00
2018-03-15T13:15:04.074Z,43.70
2018-03-15T13:17:33.305Z,44.00
2018-03-15T13:20:02.585Z,44.30
2018-03-15T13:22:32.619Z,44.70
2018-03-15T13:25:01.875Z,44.70
2018-03-15T13:27:31.886Z,44.20
2018-03-15T13:30:01.125Z,44.20
2018-03-15T13:32:30.358Z,45.70
2018-03-15T13:34:59.614Z,45.00
2018-03-15T13:37:29.585Z,45.80
2018-03-15T13:39:58.777Z,46.30
2018-03-15T13:42:28.099Z,43.80
2018-03-15T13:44:57.361Z,48.30
2018-03-15T13:47:26.586Z,47.50
2018-03-15T13:49:55.806Z,44.80
2018-03-15T13:52:25.018Z,44.40
2018-03-15T13:54:54.257Z,43.40
2018-03-15T13:57:23.458Z,44.20
2018-03-15T13:59:52.696Z,44.70
2018-03-15T14:02:22.718Z,47.60
2018-03-15T14:04:52.765Z,48.10
2018-03-15T14:07:22.813Z,44.00
2018-03-15T14:09:52.038Z,44.00
2018-03-15T14:12:22.086Z,47.30
2018-03-15T14:14:51.305Z,47.30
2018-03-15T14:17:20.514Z,48.10
2018-03-15T14:19:49.710Z,44.90
2018-03-15T14:22:18.983Z,42.90
2018-03-15T14:24:48.221Z,44.50
2018-03-15T14:27:17.478Z,43.20
2018-03-15T14:29:46.744Z,43.70
2018-03-15T14:32:16.747Z,43.00
2018-03-15T14:34:46.026Z,42.90
2018-03-15T14:37:15.257Z,43.70
2018-03-15T14:39:44.505Z,45.50
2018-03-15T14:42:13.765Z,43.50
2018-03-15T14:44:43.016Z,43.70
2018-03-15T14:47:12.230Z,44.90
2018-03-15T14:49:41.485Z,45.10
2018-03-15T14:52:10.778Z,45.60
2018-03-15T14:54:40.034Z,46.20
2018-03-15T14:57:09.288Z,50.70
2018-03-15T14:59:38.537Z,46.50
2018-03-15T15:02:07.765Z,45.20
2018-03-15T15:04:37.046Z,45.20
2018-03-15T15:07:06.321Z,44.20
2018-03-15T15:09:35.550Z,44.70
2018-03-15T15:12:04.779Z,49.40
2018-03-15T15:14:33.986Z,46.90
2018-03-15T15:17:03.258Z,46.30
2018-03-15T15:19:33.249Z,48.00
2018-03-15T15:22:02.507Z,46.90
2018-03-15T15:24:31.699Z,46.10
2018-03-15T15:27:00.916Z,46.00
2018-03-15T15:29:30.138Z,45.80
2018-03-15T15:31:59.394Z,45.70
2018-03-15T15:34:28.598Z,44.80
2018-03-15T15:36:57.898Z,45.30
2018-03-15T15:39:27.118Z,45.20
2018-03-15T15:41:56.634Z,44.70
2018-03-15T15:44:25.865Z,45.10
2018-03-15T15:46:55.873Z,47.60
2018-03-15T15:49:25.842Z,46.60
2018-03-15T15:51:55.138Z,46.50
2018-03-15T15:54:24.406Z,46.10
2018-03-15T15:56:53.634Z,46.30
2018-03-15T15:59:22.870Z,46.70
2018-03-15T16:01:52.903Z,47.60
2018-03-15T16:04:22.906Z,47.70
2018-03-15T16:06:52.098Z,47.60
2018-03-15T16:09:21.344Z,49.70
2018-03-15T16:11:51.129Z,46.80
2018-03-15T16:14:20.406Z,48.70
2018-03-15T16:16:49.653Z,47.00
2018-03-15T16:19:18.908Z,45.90
2018-03-15T16:21:48.977Z,47.40
2018-03-15T16:24:18.172Z,47.30
2018-03-15T16:26:47.426Z,45.50
2018-03-15T16:29:16.670Z,49.90
2018-03-15T16:31:45.948Z,46.30
2018-03-15T16:34:15.194Z,47.60
2018-03-15T16:36:44.460Z,50.90
2018-03-15T16:39:13.691Z,48.20
2018-03-15T16:41:42.908Z,46.10
2018-03-15T16:44:12.116Z,49.80
2018-03-15T16:46:42.118Z,48.90
2018-03-15T16:49:11.402Z,48.90
2018-03-15T16:51:40.669Z,48.20
2018-03-15T16:54:09.987Z,48.60
2018-03-15T16:56:40.010Z,52.60
2018-03-15T16:59:09.221Z,52.00
2018-03-15T17:01:38.468Z,51.30
2018-03-15T17:04:07.751Z,51.90
2018-03-15T17:06:37.699Z,47.90
2018-03-15T17:09:07.037Z,47.90
2018-03-15T17:11:36.248Z,45.00
2018-03-15T17:14:05.430Z,45.00
2018-03-15T17:16:34.693Z,44.60
2018-03-15T17:19:03.946Z,45.50
2018-03-15T17:21:33.152Z,47.90
2018-03-15T17:24:02.355Z,44.90
2018-03-15T17:26:32.386Z,45.70
2018-03-15T17:29:01.628Z,45.70
2018-03-15T17:31:30.870Z,47.90
2018-03-15T17:34:00.897Z,44.00
2018-03-15T17:36:30.146Z,44.00
2018-03-15T17:38:59.348Z,46.10
2018-03-15T17:41:28.580Z,45.00
2018-03-15T17:43:57.791Z,47.00
2018-03-15T17:46:27.014Z,46.40
2018-03-15T17:48:56.271Z,45.90
2018-03-15T17:51:25.514Z,49.00
2018-03-15T17:53:54.746Z,52.90
2018-03-15T17:56:23.998Z,53.00
2018-03-15T17:58:53.237Z,54.20
2018-03-15T18:01:23.039Z,57.40
2018-03-15T18:03:52.235Z,58.10
2018-03-15T18:06:21.449Z,60.70
2018-03-15T18:08:50.709Z,60.00
2018-03-15T18:11:20.007Z,61.80
2018-03-15T18:13:49.229Z,63.00
2018-03-15T18:16:18.427Z,64.30
2018-03-15T18:18:48.277Z,65.20
2018-03-15T18:21:17.542Z,66.20
2018-03-15T18:23:46.788Z,65.50
2018-03-15T18:26:16.016Z,65.70
2018-03-15T18:28:45.251Z,66.90
2018-03-15T18:31:14.470Z,67.60
2018-03-15T18:33:43.655Z,67.80
2018-03-15T18:36:12.928Z,68.40
2018-03-15T18:38:42.197Z,68.20
2018-03-15T18:41:11.448Z,67.60
2018-03-15T18:43:40.689Z,68.50
2018-03-15T18:46:09.975Z,67.50
2018-03-15T18:48:39.246Z,68.10
2018-03-15T18:51:08.512Z,68.60
2018-03-15T18:53:37.805Z,69.70
2018-03-15T18:56:07.056Z,69.50
2018-03-15T18:58:36.332Z,66.90
2018-03-15T19:01:12.612Z,67.50
2018-03-15T19:03:34.959Z,65.40
2018-03-15T19:06:05.095Z,62.80
2018-03-15T19:08:34.453Z,62.70
2018-03-15T19:11:03.725Z,64.30
2018-03-15T19:13:32.964Z,64.70
2018-03-15T19:16:02.232Z,65.10
2018-03-15T19:18:31.472Z,65.10
2018-03-15T19:21:00.721Z,66.10
2018-03-15T19:23:29.995Z,66.20
2018-03-15T19:25:59.937Z,67.70
2018-03-15T19:28:29.309Z,67.50
2018-03-15T19:30:59.321Z,69.40
2018-03-15T19:33:29.370Z,70.30
2018-03-15T19:35:58.629Z,70.30
2018-03-15T19:38:27.953Z,69.40
2018-03-15T19:40:57.241Z,68.90
2018-03-15T19:43:26.575Z,66.00
2018-03-15T19:45:55.818Z,68.80
2018-03-15T19:48:25.038Z,69.30
2018-03-15T19:50:54.325Z,70.40
2018-03-15T19:53:24.348Z,69.50
2018-03-15T19:55:53.582Z,69.50
2018-03-15T19:58:22.795Z,70.70
2018-03-15T20:00:52.026Z,71.10
2018-03-15T20:03:22.232Z,69.90
2018-03-15T20:05:51.491Z,68.40
2018-03-15T20:08:20.774Z,65.80
2018-03-15T20:10:50.053Z,68.10
2018-03-15T20:13:19.245Z,69.00
2018-03-15T20:15:49.305Z,69.10
2018-03-15T20:18:18.585Z,67.60
2018-03-15T20:20:47.830Z,69.40
2018-03-15T20:23:22.701Z,71.90
2018-03-15T20:25:52.722Z,74.00
2018-03-15T20:28:28.111Z,75.10
2018-03-15T20:30:57.342Z,75.10
2018-03-15T20:33:32.879Z,71.20
2018-03-15T20:36:02.197Z,71.10
2018-03-15T20:38:32.173Z,72.70
2018-03-15T20:44:02.618Z,73.20
2018-03-15T20:46:37.363Z,70.90
2018-03-15T20:49:12.182Z,70.10
2018-03-15T20:51:41.479Z,68.60
2018-03-15T20:54:10.732Z,68.90
2018-03-15T20:56:40.682Z,69.30
2018-03-15T20:59:09.858Z,69.30
2018-03-15T21:01:40.601Z,71.80
2018-03-15T21:04:09.833Z,71.80
2018-03-15T21:06:39.072Z,72.60
2018-03-15T21:09:09.072Z,76.00
2018-03-15T21:11:38.245Z,76.00
2018-03-15T21:14:07.443Z,75.10
2018-03-15T21:16:36.637Z,70.40
2018-03-15T21:19:05.794Z,70.40
2018-03-15T21:21:35.930Z,71.80
2018-03-15T21:24:05.182Z,71.80
2018-03-15T21:26:34.410Z,72.20
2018-03-15T21:29:03.590Z,71.10
2018-03-15T21:31:33.562Z,71.70
2018-03-15T21:34:02.765Z,71.70
2018-03-15T21:36:31.961Z,73.80
2018-03-15T21:39:01.145Z,73.30
2018-03-15T21:41:30.330Z,74.40
2018-03-15T21:43:59.530Z,75.40
2018-03-15T21:46:28.831Z,77.40
2018-03-15T21:48:58.050Z,77.70
2018-03-15T21:51:27.242Z,75.30
2018-03-15T21:53:56.406Z,74.60
2018-03-15T21:56:25.632Z,75.90
2018-03-15T21:58:54.846Z,74.70
2018-03-15T22:01:24.070Z,72.60
2018-03-15T22:03:53.567Z,71.60
2018-03-15T22:06:23.600Z,73.80
2018-03-15T22:08:53.599Z,75.30
2018-03-15T22:11:22.899Z,75.30
2018-03-15T22:13:52.147Z,75.80
2018-03-15T22:16:22.413Z,77.50
2018-03-15T22:18:51.684Z,77.50
2018-03-15T22:21:20.965Z,76.30
2018-03-15T22:23:50.199Z,76.10
2018-03-15T22:26:19.431Z,75.90
2018-03-15T22:28:49.503Z,74.40
2018-03-15T22:31:18.719Z,74.20
2018-03-15T22:33:47.972Z,76.00
2018-03-15T22:36:17.179Z,75.50
2018-03-15T22:38:46.415Z,75.70
2018-03-15T22:41:16.464Z,76.70
2018-03-15T22:43:46.467Z,78.40
2018-03-15T22:46:16.436Z,78.70
2018-03-15T22:48:45.640Z,78.70
2018-03-15T22:51:14.871Z,76.90
2018-03-15T22:53:44.132Z,78.20
2018-03-15T22:56:13.360Z,77.90
2018-03-15T22:58:43.415Z,76.40
2018-03-15T23:01:14.301Z,76.80
2018-03-15T23:03:43.524Z,76.80
2018-03-15T23:06:13.627Z,75.50
2018-03-15T23:08:43.571Z,74.60
2018-03-15T23:11:12.823Z,74.60
2018-03-15T23:13:42.099Z,75.80
2018-03-15T23:16:11.344Z,76.80
2018-03-15T23:18:40.622Z,76.70
2018-03-15T23:21:09.872Z,76.90
2018-03-15T23:23:39.148Z,76.40
2018-03-15T23:26:08.448Z,77.90
2018-03-15T23:28:37.705Z,79.40
2018-03-15T23:31:07.054Z,79.60
2018-03-15T23:33:36.726Z,78.20
2018-03-15T23:36:06.021Z,76.10
2018-03-15T23:38:35.253Z,77.20
2018-03-15T23:41:04.491Z,77.30
2018-03-15T23:43:34.472Z,75.80
2018-03-15T23:46:03.740Z,75.80
2018-03-15T23:48:33.024Z,77.60
2018-03-15T23:51:02.275Z,75.70
2018-03-15T23:56:07.660Z,74.20
2018-03-15T23:58:36.883Z,74.10
